sensor_id;sensor_type;location;lat;lon;timestamp;P1;durP1;ratioP1;P2;durP2;ratioP2
6207;SDS011;3137;51.550;7.060;2023-04-25T00:01:35;11.23;;;6.17;;
6207;SDS011;3137;51.550;7.060;2023-04-25T00:04:02;7.13;;;6.43;;
6207;SDS011;3137;51.550;7.060;2023-04-25T00:06:29;16.60;;;7.57;;
6207;SDS011;3137;51.550;7.060;2023-04-25T00:08:56;7.37;;;6.57;;
6207;SDS011;3137;51.550;7.060;2023-04-25T00:11:23;7.73;;;6.77;;
6207;SDS011;3137;51.550;7.060;2023-04-25T00:13:49;10.07;;;6.10;;
6207;SDS011;3137;51.550;7.060;2023-04-25T00:16:20;6.50;;;5.90;;
6207;SDS011;3137;51.550;7.060;2023-04-25T00:18:46;5.87;;;5.40;;
6207;SDS011;3137;51.550;7.060;2023-04-25T00:21:18;6.87;;;6.37;;
6207;SDS011;3137;51.550;7.060;2023-04-25T00:23:46;7.20;;;6.50;;
6207;SDS011;3137;51.550;7.060;2023-04-25T00:26:13;7.03;;;5.87;;
6207;SDS011;3137;51.550;7.060;2023-04-25T00:28:39;6.10;;;5.73;;
6207;SDS011;3137;51.550;7.060;2023-04-25T00:31:06;11.40;;;6.87;;
6207;SDS011;3137;51.550;7.060;2023-04-25T00:33:33;10.70;;;6.83;;
6207;SDS011;3137;51.550;7.060;2023-04-25T00:35:59;6.23;;;5.93;;
6207;SDS011;3137;51.550;7.060;2023-04-25T00:38:26;6.70;;;6.00;;
6207;SDS011;3137;51.550;7.060;2023-04-25T00:40:52;6.57;;;6.17;;
6207;SDS011;3137;51.550;7.060;2023-04-25T00:43:20;6.70;;;6.07;;
6207;SDS011;3137;51.550;7.060;2023-04-25T00:45:47;10.07;;;6.33;;
6207;SDS011;3137;51.550;7.060;2023-04-25T00:48:14;10.13;;;5.53;;
6207;SDS011;3137;51.550;7.060;2023-04-25T00:50:41;15.40;;;5.80;;
6207;SDS011;3137;51.550;7.060;2023-04-25T00:53:08;7.87;;;6.23;;
6207;SDS011;3137;51.550;7.060;2023-04-25T00:55:36;6.57;;;6.00;;
6207;SDS011;3137;51.550;7.060;2023-04-25T00:58:02;7.83;;;5.73;;
6207;SDS011;3137;51.550;7.060;2023-04-25T01:00:29;9.50;;;6.17;;
6207;SDS011;3137;51.550;7.060;2023-04-25T01:02:56;7.07;;;6.50;;
6207;SDS011;3137;51.550;7.060;2023-04-25T01:05:23;9.90;;;6.03;;
6207;SDS011;3137;51.550;7.060;2023-04-25T01:07:49;17.03;;;6.83;;
6207;SDS011;3137;51.550;7.060;2023-04-25T01:10:16;9.57;;;6.83;;
6207;SDS011;3137;51.550;7.060;2023-04-25T01:12:42;8.00;;;7.27;;
6207;SDS011;3137;51.550;7.060;2023-04-25T01:15:09;8.27;;;7.10;;
6207;SDS011;3137;51.550;7.060;2023-04-25T01:17:36;9.63;;;6.83;;
6207;SDS011;3137;51.550;7.060;2023-04-25T01:20:03;6.73;;;6.33;;
6207;SDS011;3137;51.550;7.060;2023-04-25T01:22:31;10.13;;;6.47;;
6207;SDS011;3137;51.550;7.060;2023-04-25T01:24:58;8.60;;;6.97;;
6207;SDS011;3137;51.550;7.060;2023-04-25T01:27:26;12.20;;;7.77;;
6207;SDS011;3137;51.550;7.060;2023-04-25T01:29:54;9.13;;;6.93;;
6207;SDS011;3137;51.550;7.060;2023-04-25T01:32:22;11.00;;;6.63;;
6207;SDS011;3137;51.550;7.060;2023-04-25T01:34:50;18.77;;;7.00;;
6207;SDS011;3137;51.550;7.060;2023-04-25T01:37:18;9.93;;;7.33;;
6207;SDS011;3137;51.550;7.060;2023-04-25T01:39:44;8.80;;;7.00;;
6207;SDS011;3137;51.550;7.060;2023-04-25T01:42:11;12.60;;;7.13;;
6207;SDS011;3137;51.550;7.060;2023-04-25T01:44:39;10.73;;;7.63;;
6207;SDS011;3137;51.550;7.060;2023-04-25T01:47:05;7.80;;;6.87;;
6207;SDS011;3137;51.550;7.060;2023-04-25T01:49:32;12.37;;;6.93;;
6207;SDS011;3137;51.550;7.060;2023-04-25T01:51:58;13.00;;;7.97;;
6207;SDS011;3137;51.550;7.060;2023-04-25T01:54:25;7.83;;;7.17;;
6207;SDS011;3137;51.550;7.060;2023-04-25T01:56:52;9.37;;;7.03;;
6207;SDS011;3137;51.550;7.060;2023-04-25T01:59:20;8.60;;;6.50;;
6207;SDS011;3137;51.550;7.060;2023-04-25T02:01:59;9.83;;;7.40;;
6207;SDS011;3137;51.550;7.060;2023-04-25T02:04:30;9.97;;;7.90;;
6207;SDS011;3137;51.550;7.060;2023-04-25T02:06:57;15.40;;;8.00;;
6207;SDS011;3137;51.550;7.060;2023-04-25T02:09:30;21.00;;;8.20;;
6207;SDS011;3137;51.550;7.060;2023-04-25T02:11:58;10.70;;;7.63;;
6207;SDS011;3137;51.550;7.060;2023-04-25T02:14:33;7.50;;;6.90;;
6207;SDS011;3137;51.550;7.060;2023-04-25T02:17:16;10.23;;;7.70;;
6207;SDS011;3137;51.550;7.060;2023-04-25T02:19:44;9.80;;;7.67;;
6207;SDS011;3137;51.550;7.060;2023-04-25T02:22:11;16.47;;;7.97;;
6207;SDS011;3137;51.550;7.060;2023-04-25T02:24:38;10.37;;;7.77;;
6207;SDS011;3137;51.550;7.060;2023-04-25T02:27:05;10.13;;;8.07;;
6207;SDS011;3137;51.550;7.060;2023-04-25T02:29:32;8.47;;;6.90;;
6207;SDS011;3137;51.550;7.060;2023-04-25T02:31:59;7.03;;;6.37;;
6207;SDS011;3137;51.550;7.060;2023-04-25T02:34:25;7.00;;;6.57;;
6207;SDS011;3137;51.550;7.060;2023-04-25T02:36:52;9.13;;;6.57;;
6207;SDS011;3137;51.550;7.060;2023-04-25T02:39:18;7.77;;;7.07;;
6207;SDS011;3137;51.550;7.060;2023-04-25T02:41:45;11.10;;;7.23;;
6207;SDS011;3137;51.550;7.060;2023-04-25T02:44:11;8.47;;;7.60;;
6207;SDS011;3137;51.550;7.060;2023-04-25T02:46:37;20.27;;;7.50;;
6207;SDS011;3137;51.550;7.060;2023-04-25T02:49:05;9.93;;;7.10;;
6207;SDS011;3137;51.550;7.060;2023-04-25T02:51:33;15.53;;;7.33;;
6207;SDS011;3137;51.550;7.060;2023-04-25T02:53:59;12.20;;;6.57;;
6207;SDS011;3137;51.550;7.060;2023-04-25T02:56:26;11.70;;;7.47;;
6207;SDS011;3137;51.550;7.060;2023-04-25T02:58:53;9.40;;;7.80;;
6207;SDS011;3137;51.550;7.060;2023-04-25T03:01:19;11.53;;;6.93;;
6207;SDS011;3137;51.550;7.060;2023-04-25T03:03:46;8.40;;;7.67;;
6207;SDS011;3137;51.550;7.060;2023-04-25T03:06:13;9.83;;;7.13;;
6207;SDS011;3137;51.550;7.060;2023-04-25T03:08:40;10.23;;;8.27;;
6207;SDS011;3137;51.550;7.060;2023-04-25T03:11:08;13.60;;;7.97;;
6207;SDS011;3137;51.550;7.060;2023-04-25T03:13:35;10.33;;;7.77;;
6207;SDS011;3137;51.550;7.060;2023-04-25T03:16:01;16.13;;;8.23;;
6207;SDS011;3137;51.550;7.060;2023-04-25T03:18:28;11.23;;;8.77;;
6207;SDS011;3137;51.550;7.060;2023-04-25T03:20:55;8.70;;;7.80;;
6207;SDS011;3137;51.550;7.060;2023-04-25T03:23:21;14.03;;;8.47;;
6207;SDS011;3137;51.550;7.060;2023-04-25T03:25:48;15.47;;;8.10;;
6207;SDS011;3137;51.550;7.060;2023-04-25T03:28:15;14.80;;;8.80;;
6207;SDS011;3137;51.550;7.060;2023-04-25T03:30:41;21.97;;;9.90;;
6207;SDS011;3137;51.550;7.060;2023-04-25T03:33:08;18.00;;;8.03;;
6207;SDS011;3137;51.550;7.060;2023-04-25T03:35:35;12.97;;;7.97;;
6207;SDS011;3137;51.550;7.060;2023-04-25T03:38:01;11.33;;;8.73;;
6207;SDS011;3137;51.550;7.060;2023-04-25T03:40:32;17.20;;;7.90;;
6207;SDS011;3137;51.550;7.060;2023-04-25T03:43:28;14.03;;;8.17;;
6207;SDS011;3137;51.550;7.060;2023-04-25T03:46:03;23.63;;;9.47;;
6207;SDS011;3137;51.550;7.060;2023-04-25T03:48:29;16.37;;;8.87;;
6207;SDS011;3137;51.550;7.060;2023-04-25T03:50:57;8.43;;;6.47;;
6207;SDS011;3137;51.550;7.060;2023-04-25T03:53:25;12.00;;;6.47;;
6207;SDS011;3137;51.550;7.060;2023-04-25T03:56:10;4.30;;;4.10;;
6207;SDS011;3137;51.550;7.060;2023-04-25T03:58:38;8.80;;;4.47;;
6207;SDS011;3137;51.550;7.060;2023-04-25T04:01:05;7.37;;;4.97;;
6207;SDS011;3137;51.550;7.060;2023-04-25T04:03:36;5.67;;;5.27;;
6207;SDS011;3137;51.550;7.060;2023-04-25T04:06:03;4.93;;;4.67;;
6207;SDS011;3137;51.550;7.060;2023-04-25T04:08:34;6.43;;;5.00;;
6207;SDS011;3137;51.550;7.060;2023-04-25T04:11:01;13.20;;;5.30;;
6207;SDS011;3137;51.550;7.060;2023-04-25T04:13:28;6.17;;;5.00;;
6207;SDS011;3137;51.550;7.060;2023-04-25T04:15:56;5.13;;;4.50;;
6207;SDS011;3137;51.550;7.060;2023-04-25T04:18:23;8.43;;;4.80;;
6207;SDS011;3137;51.550;7.060;2023-04-25T04:20:49;5.53;;;5.00;;
6207;SDS011;3137;51.550;7.060;2023-04-25T04:23:16;10.33;;;4.43;;
6207;SDS011;3137;51.550;7.060;2023-04-25T04:25:43;15.80;;;6.07;;
6207;SDS011;3137;51.550;7.060;2023-04-25T04:28:20;4.50;;;4.30;;
6207;SDS011;3137;51.550;7.060;2023-04-25T04:30:55;15.47;;;4.73;;
6207;SDS011;3137;51.550;7.060;2023-04-25T04:33:22;10.03;;;4.90;;
6207;SDS011;3137;51.550;7.060;2023-04-25T04:35:55;6.03;;;5.43;;
6207;SDS011;3137;51.550;7.060;2023-04-25T04:38:21;6.07;;;4.90;;
6207;SDS011;3137;51.550;7.060;2023-04-25T04:40:50;4.90;;;4.63;;
6207;SDS011;3137;51.550;7.060;2023-04-25T04:43:46;6.27;;;5.20;;
6207;SDS011;3137;51.550;7.060;2023-04-25T04:46:27;9.03;;;5.57;;
6207;SDS011;3137;51.550;7.060;2023-04-25T04:49:10;18.90;;;6.33;;
6207;SDS011;3137;51.550;7.060;2023-04-25T04:51:54;11.33;;;6.00;;
6207;SDS011;3137;51.550;7.060;2023-04-25T04:54:36;15.83;;;8.00;;
6207;SDS011;3137;51.550;7.060;2023-04-25T04:57:25;11.77;;;8.30;;
6207;SDS011;3137;51.550;7.060;2023-04-25T05:00:02;17.37;;;9.60;;
6207;SDS011;3137;51.550;7.060;2023-04-25T05:02:48;16.30;;;9.93;;
6207;SDS011;3137;51.550;7.060;2023-04-25T05:05:34;18.43;;;10.50;;
6207;SDS011;3137;51.550;7.060;2023-04-25T05:08:18;15.50;;;11.93;;
6207;SDS011;3137;51.550;7.060;2023-04-25T05:11:03;22.37;;;11.00;;
6207;SDS011;3137;51.550;7.060;2023-04-25T05:13:38;16.80;;;10.90;;
6207;SDS011;3137;51.550;7.060;2023-04-25T05:16:18;22.17;;;11.43;;
6207;SDS011;3137;51.550;7.060;2023-04-25T05:18:54;16.63;;;10.90;;
6207;SDS011;3137;51.550;7.060;2023-04-25T05:21:41;24.23;;;10.87;;
6207;SDS011;3137;51.550;7.060;2023-04-25T05:24:22;11.00;;;9.63;;
6207;SDS011;3137;51.550;7.060;2023-04-25T05:27:07;19.30;;;10.50;;
6207;SDS011;3137;51.550;7.060;2023-04-25T05:30:03;22.03;;;11.43;;
6207;SDS011;3137;51.550;7.060;2023-04-25T05:32:54;28.30;;;10.83;;
6207;SDS011;3137;51.550;7.060;2023-04-25T05:35:21;17.47;;;11.67;;
6207;SDS011;3137;51.550;7.060;2023-04-25T05:37:49;17.60;;;9.83;;
6207;SDS011;3137;51.550;7.060;2023-04-25T05:40:15;41.07;;;14.83;;
6207;SDS011;3137;51.550;7.060;2023-04-25T05:43:03;34.33;;;13.50;;
6207;SDS011;3137;51.550;7.060;2023-04-25T05:45:42;22.43;;;11.57;;
6207;SDS011;3137;51.550;7.060;2023-04-25T05:48:29;33.53;;;11.03;;
6207;SDS011;3137;51.550;7.060;2023-04-25T05:51:15;33.07;;;13.40;;
6207;SDS011;3137;51.550;7.060;2023-04-25T05:53:42;16.97;;;12.23;;
6207;SDS011;3137;51.550;7.060;2023-04-25T05:56:08;41.57;;;12.23;;
6207;SDS011;3137;51.550;7.060;2023-04-25T05:58:35;35.37;;;12.40;;
6207;SDS011;3137;51.550;7.060;2023-04-25T06:01:02;25.93;;;11.93;;
6207;SDS011;3137;51.550;7.060;2023-04-25T06:03:29;28.80;;;13.67;;
6207;SDS011;3137;51.550;7.060;2023-04-25T06:05:57;20.73;;;12.13;;
6207;SDS011;3137;51.550;7.060;2023-04-25T06:08:24;39.97;;;13.43;;
6207;SDS011;3137;51.550;7.060;2023-04-25T06:10:54;24.43;;;13.30;;
6207;SDS011;3137;51.550;7.060;2023-04-25T06:13:22;23.87;;;13.07;;
6207;SDS011;3137;51.550;7.060;2023-04-25T06:15:48;35.60;;;10.70;;
6207;SDS011;3137;51.550;7.060;2023-04-25T06:18:16;25.47;;;11.23;;
6207;SDS011;3137;51.550;7.060;2023-04-25T06:20:42;21.57;;;10.30;;
6207;SDS011;3137;51.550;7.060;2023-04-25T06:23:09;21.53;;;11.60;;
6207;SDS011;3137;51.550;7.060;2023-04-25T06:25:50;21.73;;;11.10;;
6207;SDS011;3137;51.550;7.060;2023-04-25T06:28:16;22.37;;;8.53;;
6207;SDS011;3137;51.550;7.060;2023-04-25T06:30:43;26.90;;;11.03;;
6207;SDS011;3137;51.550;7.060;2023-04-25T06:33:13;22.30;;;11.50;;
6207;SDS011;3137;51.550;7.060;2023-04-25T06:35:40;14.93;;;8.50;;
6207;SDS011;3137;51.550;7.060;2023-04-25T06:38:10;13.57;;;8.50;;
6207;SDS011;3137;51.550;7.060;2023-04-25T06:40:37;11.97;;;7.63;;
6207;SDS011;3137;51.550;7.060;2023-04-25T06:43:05;8.30;;;7.50;;
6207;SDS011;3137;51.550;7.060;2023-04-25T06:45:50;19.50;;;7.00;;
6207;SDS011;3137;51.550;7.060;2023-04-25T06:48:19;12.03;;;7.47;;
6207;SDS011;3137;51.550;7.060;2023-04-25T06:50:46;9.87;;;5.60;;
6207;SDS011;3137;51.550;7.060;2023-04-25T06:53:12;9.77;;;5.30;;
6207;SDS011;3137;51.550;7.060;2023-04-25T06:55:41;12.33;;;5.80;;
6207;SDS011;3137;51.550;7.060;2023-04-25T06:58:15;6.60;;;4.83;;
6207;SDS011;3137;51.550;7.060;2023-04-25T07:01:00;12.37;;;5.33;;
6207;SDS011;3137;51.550;7.060;2023-04-25T07:03:27;8.17;;;4.70;;
6207;SDS011;3137;51.550;7.060;2023-04-25T07:05:58;8.37;;;4.33;;
6207;SDS011;3137;51.550;7.060;2023-04-25T07:08:25;5.77;;;4.13;;
6207;SDS011;3137;51.550;7.060;2023-04-25T07:10:51;5.67;;;5.23;;
6207;SDS011;3137;51.550;7.060;2023-04-25T07:13:17;4.93;;;4.53;;
6207;SDS011;3137;51.550;7.060;2023-04-25T07:15:44;10.97;;;5.27;;
6207;SDS011;3137;51.550;7.060;2023-04-25T07:18:11;6.60;;;3.90;;
6207;SDS011;3137;51.550;7.060;2023-04-25T07:20:38;4.47;;;4.10;;
6207;SDS011;3137;51.550;7.060;2023-04-25T07:23:05;6.27;;;4.23;;
6207;SDS011;3137;51.550;7.060;2023-04-25T07:25:32;7.30;;;3.80;;
6207;SDS011;3137;51.550;7.060;2023-04-25T07:27:59;6.03;;;4.20;;
6207;SDS011;3137;51.550;7.060;2023-04-25T07:30:26;8.17;;;4.83;;
6207;SDS011;3137;51.550;7.060;2023-04-25T07:32:53;4.97;;;4.67;;
6207;SDS011;3137;51.550;7.060;2023-04-25T07:35:20;4.40;;;3.90;;
6207;SDS011;3137;51.550;7.060;2023-04-25T07:37:47;14.27;;;3.93;;
6207;SDS011;3137;51.550;7.060;2023-04-25T07:40:17;8.47;;;4.77;;
6207;SDS011;3137;51.550;7.060;2023-04-25T07:42:47;10.30;;;4.30;;
6207;SDS011;3137;51.550;7.060;2023-04-25T07:45:18;7.23;;;4.30;;
6207;SDS011;3137;51.550;7.060;2023-04-25T07:47:44;3.60;;;3.40;;
6207;SDS011;3137;51.550;7.060;2023-04-25T07:50:11;8.37;;;4.10;;
6207;SDS011;3137;51.550;7.060;2023-04-25T07:52:37;17.47;;;5.50;;
6207;SDS011;3137;51.550;7.060;2023-04-25T07:55:22;4.50;;;4.10;;
6207;SDS011;3137;51.550;7.060;2023-04-25T07:58:00;4.60;;;4.40;;
6207;SDS011;3137;51.550;7.060;2023-04-25T08:00:28;7.37;;;3.83;;
6207;SDS011;3137;51.550;7.060;2023-04-25T08:03:14;5.40;;;4.10;;
6207;SDS011;3137;51.550;7.060;2023-04-25T08:05:41;15.20;;;4.47;;
6207;SDS011;3137;51.550;7.060;2023-04-25T08:08:08;3.33;;;3.13;;
6207;SDS011;3137;51.550;7.060;2023-04-25T08:10:35;6.43;;;4.43;;
6207;SDS011;3137;51.550;7.060;2023-04-25T08:13:01;7.80;;;3.50;;
6207;SDS011;3137;51.550;7.060;2023-04-25T08:15:28;3.47;;;3.20;;
6207;SDS011;3137;51.550;7.060;2023-04-25T08:17:55;7.97;;;4.43;;
6207;SDS011;3137;51.550;7.060;2023-04-25T08:20:21;8.87;;;3.47;;
6207;SDS011;3137;51.550;7.060;2023-04-25T08:22:50;8.93;;;4.43;;
6207;SDS011;3137;51.550;7.060;2023-04-25T08:25:27;3.83;;;3.63;;
6207;SDS011;3137;51.550;7.060;2023-04-25T08:27:54;6.07;;;4.43;;
6207;SDS011;3137;51.550;7.060;2023-04-25T08:30:21;3.97;;;3.87;;
6207;SDS011;3137;51.550;7.060;2023-04-25T08:32:49;9.93;;;3.73;;
6207;SDS011;3137;51.550;7.060;2023-04-25T08:35:38;11.77;;;4.87;;
6207;SDS011;3137;51.550;7.060;2023-04-25T08:38:05;12.13;;;4.17;;
6207;SDS011;3137;51.550;7.060;2023-04-25T08:40:32;7.80;;;4.30;;
6207;SDS011;3137;51.550;7.060;2023-04-25T08:43:07;12.33;;;4.40;;
6207;SDS011;3137;51.550;7.060;2023-04-25T08:45:41;4.93;;;3.40;;
6207;SDS011;3137;51.550;7.060;2023-04-25T08:48:13;14.00;;;4.17;;
6207;SDS011;3137;51.550;7.060;2023-04-25T08:50:51;9.07;;;3.90;;
6207;SDS011;3137;51.550;7.060;2023-04-25T08:53:26;16.20;;;4.27;;
6207;SDS011;3137;51.550;7.060;2023-04-25T08:55:57;4.87;;;3.07;;
6207;SDS011;3137;51.550;7.060;2023-04-25T08:58:24;5.60;;;3.50;;
6207;SDS011;3137;51.550;7.060;2023-04-25T09:00:51;4.63;;;3.60;;
6207;SDS011;3137;51.550;7.060;2023-04-25T09:03:21;3.03;;;2.83;;
6207;SDS011;3137;51.550;7.060;2023-04-25T09:05:49;3.63;;;3.33;;
6207;SDS011;3137;51.550;7.060;2023-04-25T09:08:17;6.53;;;3.30;;
6207;SDS011;3137;51.550;7.060;2023-04-25T09:10:43;4.43;;;3.40;;
6207;SDS011;3137;51.550;7.060;2023-04-25T09:16:08;4.33;;;3.90;;
6207;SDS011;3137;51.550;7.060;2023-04-25T09:18:43;6.30;;;3.37;;
6207;SDS011;3137;51.550;7.060;2023-04-25T09:21:14;6.03;;;3.60;;
6207;SDS011;3137;51.550;7.060;2023-04-25T09:23:45;6.57;;;2.93;;
6207;SDS011;3137;51.550;7.060;2023-04-25T09:26:14;4.97;;;3.40;;
6207;SDS011;3137;51.550;7.060;2023-04-25T09:28:43;7.27;;;3.57;;
6207;SDS011;3137;51.550;7.060;2023-04-25T09:31:23;5.53;;;3.37;;
6207;SDS011;3137;51.550;7.060;2023-04-25T09:34:00;2.87;;;2.77;;
6207;SDS011;3137;51.550;7.060;2023-04-25T09:36:31;4.00;;;2.80;;
6207;SDS011;3137;51.550;7.060;2023-04-25T09:39:14;8.10;;;3.50;;
6207;SDS011;3137;51.550;7.060;2023-04-25T09:41:46;3.23;;;2.90;;
6207;SDS011;3137;51.550;7.060;2023-04-25T09:44:13;5.43;;;2.60;;
6207;SDS011;3137;51.550;7.060;2023-04-25T09:46:41;3.20;;;2.90;;
6207;SDS011;3137;51.550;7.060;2023-04-25T09:49:15;4.53;;;2.47;;
6207;SDS011;3137;51.550;7.060;2023-04-25T09:51:58;6.73;;;3.17;;
6207;SDS011;3137;51.550;7.060;2023-04-25T09:54:32;4.20;;;3.07;;
6207;SDS011;3137;51.550;7.060;2023-04-25T09:57:19;5.00;;;3.13;;
6207;SDS011;3137;51.550;7.060;2023-04-25T09:59:48;5.47;;;2.07;;
6207;SDS011;3137;51.550;7.060;2023-04-25T10:02:17;3.00;;;2.70;;
6207;SDS011;3137;51.550;7.060;2023-04-25T10:04:51;4.70;;;2.83;;
6207;SDS011;3137;51.550;7.060;2023-04-25T10:07:31;4.50;;;4.20;;
6207;SDS011;3137;51.550;7.060;2023-04-25T10:10:01;3.70;;;2.57;;
6207;SDS011;3137;51.550;7.060;2023-04-25T10:12:29;3.33;;;2.37;;
6207;SDS011;3137;51.550;7.060;2023-04-25T10:15:00;3.23;;;1.97;;
6207;SDS011;3137;51.550;7.060;2023-04-25T10:17:28;6.87;;;2.60;;
6207;SDS011;3137;51.550;7.060;2023-04-25T10:19:55;4.03;;;3.20;;
6207;SDS011;3137;51.550;7.060;2023-04-25T10:22:29;2.87;;;2.67;;
6207;SDS011;3137;51.550;7.060;2023-04-25T10:25:00;4.97;;;3.10;;
6207;SDS011;3137;51.550;7.060;2023-04-25T10:27:30;4.93;;;4.40;;
6207;SDS011;3137;51.550;7.060;2023-04-25T10:30:01;7.80;;;6.70;;
6207;SDS011;3137;51.550;7.060;2023-04-25T10:32:32;8.13;;;3.07;;
6207;SDS011;3137;51.550;7.060;2023-04-25T10:35:09;3.33;;;3.20;;
6207;SDS011;3137;51.550;7.060;2023-04-25T10:38:05;3.80;;;3.07;;
6207;SDS011;3137;51.550;7.060;2023-04-25T10:40:35;4.30;;;3.83;;
6207;SDS011;3137;51.550;7.060;2023-04-25T10:45:57;7.43;;;3.10;;
6207;SDS011;3137;51.550;7.060;2023-04-25T10:48:29;4.93;;;2.97;;
6207;SDS011;3137;51.550;7.060;2023-04-25T10:51:09;5.47;;;3.73;;
6207;SDS011;3137;51.550;7.060;2023-04-25T10:56:25;16.97;;;11.47;;
6207;SDS011;3137;51.550;7.060;2023-04-25T10:59:13;5.43;;;4.03;;
6207;SDS011;3137;51.550;7.060;2023-04-25T11:01:42;5.70;;;4.90;;
6207;SDS011;3137;51.550;7.060;2023-04-25T11:04:21;3.80;;;3.60;;
6207;SDS011;3137;51.550;7.060;2023-04-25T11:06:55;4.50;;;2.50;;
6207;SDS011;3137;51.550;7.060;2023-04-25T11:09:33;4.00;;;3.17;;
6207;SDS011;3137;51.550;7.060;2023-04-25T11:12:01;8.03;;;2.97;;
6207;SDS011;3137;51.550;7.060;2023-04-25T11:14:27;8.43;;;2.60;;
6207;SDS011;3137;51.550;7.060;2023-04-25T11:16:57;5.87;;;2.33;;
6207;SDS011;3137;51.550;7.060;2023-04-25T11:19:26;4.60;;;2.80;;
6207;SDS011;3137;51.550;7.060;2023-04-25T11:21:57;6.13;;;2.90;;
6207;SDS011;3137;51.550;7.060;2023-04-25T11:24:31;3.70;;;3.13;;
6207;SDS011;3137;51.550;7.060;2023-04-25T11:26:59;5.77;;;2.73;;
6207;SDS011;3137;51.550;7.060;2023-04-25T11:29:26;4.10;;;2.83;;
6207;SDS011;3137;51.550;7.060;2023-04-25T11:31:54;2.80;;;2.60;;
6207;SDS011;3137;51.550;7.060;2023-04-25T11:34:24;2.90;;;2.77;;
6207;SDS011;3137;51.550;7.060;2023-04-25T11:36:52;2.27;;;2.27;;
6207;SDS011;3137;51.550;7.060;2023-04-25T11:39:19;5.03;;;2.40;;
6207;SDS011;3137;51.550;7.060;2023-04-25T11:41:46;4.20;;;2.30;;
6207;SDS011;3137;51.550;7.060;2023-04-25T11:44:16;1.90;;;1.90;;
6207;SDS011;3137;51.550;7.060;2023-04-25T11:46:44;13.70;;;2.23;;
6207;SDS011;3137;51.550;7.060;2023-04-25T11:49:11;1.90;;;1.80;;
6207;SDS011;3137;51.550;7.060;2023-04-25T11:51:45;2.13;;;2.03;;
6207;SDS011;3137;51.550;7.060;2023-04-25T11:54:14;2.90;;;2.20;;
6207;SDS011;3137;51.550;7.060;2023-04-25T11:56:44;2.63;;;2.53;;
6207;SDS011;3137;51.550;7.060;2023-04-25T11:59:11;3.07;;;1.93;;
6207;SDS011;3137;51.550;7.060;2023-04-25T12:01:47;2.20;;;2.20;;
6207;SDS011;3137;51.550;7.060;2023-04-25T12:04:16;6.60;;;2.40;;
6207;SDS011;3137;51.550;7.060;2023-04-25T12:06:45;1.70;;;1.70;;
6207;SDS011;3137;51.550;7.060;2023-04-25T12:09:14;1.83;;;1.83;;
6207;SDS011;3137;51.550;7.060;2023-04-25T12:11:44;2.13;;;2.13;;
6207;SDS011;3137;51.550;7.060;2023-04-25T12:14:12;3.67;;;2.00;;
6207;SDS011;3137;51.550;7.060;2023-04-25T12:16:46;2.00;;;2.00;;
6207;SDS011;3137;51.550;7.060;2023-04-25T12:19:15;3.33;;;2.80;;
6207;SDS011;3137;51.550;7.060;2023-04-25T12:21:43;2.13;;;2.03;;
6207;SDS011;3137;51.550;7.060;2023-04-25T12:24:24;6.50;;;1.70;;
6207;SDS011;3137;51.550;7.060;2023-04-25T12:27:03;2.13;;;2.03;;
6207;SDS011;3137;51.550;7.060;2023-04-25T12:29:31;1.80;;;1.70;;
6207;SDS011;3137;51.550;7.060;2023-04-25T12:32:13;2.53;;;2.43;;
6207;SDS011;3137;51.550;7.060;2023-04-25T12:34:39;2.50;;;2.40;;
6207;SDS011;3137;51.550;7.060;2023-04-25T12:37:06;3.60;;;3.07;;
6207;SDS011;3137;51.550;7.060;2023-04-25T12:39:32;3.87;;;3.80;;
6207;SDS011;3137;51.550;7.060;2023-04-25T12:41:59;2.87;;;1.87;;
6207;SDS011;3137;51.550;7.060;2023-04-25T12:44:25;2.00;;;1.90;;
6207;SDS011;3137;51.550;7.060;2023-04-25T12:46:52;2.67;;;2.57;;
6207;SDS011;3137;51.550;7.060;2023-04-25T12:49:19;2.33;;;2.30;;
6207;SDS011;3137;51.550;7.060;2023-04-25T12:51:45;1.93;;;1.83;;
6207;SDS011;3137;51.550;7.060;2023-04-25T12:54:12;4.07;;;2.33;;
6207;SDS011;3137;51.550;7.060;2023-04-25T12:56:40;2.00;;;1.90;;
6207;SDS011;3137;51.550;7.060;2023-04-25T12:59:07;2.43;;;2.40;;
6207;SDS011;3137;51.550;7.060;2023-04-25T13:01:33;2.57;;;2.00;;
6207;SDS011;3137;51.550;7.060;2023-04-25T13:04:02;2.80;;;2.80;;
6207;SDS011;3137;51.550;7.060;2023-04-25T13:06:29;3.00;;;3.00;;
6207;SDS011;3137;51.550;7.060;2023-04-25T13:08:58;5.17;;;3.00;;
6207;SDS011;3137;51.550;7.060;2023-04-25T13:11:24;1.93;;;1.93;;
6207;SDS011;3137;51.550;7.060;2023-04-25T13:13:51;2.60;;;2.50;;
6207;SDS011;3137;51.550;7.060;2023-04-25T13:16:18;2.07;;;1.97;;
6207;SDS011;3137;51.550;7.060;2023-04-25T13:18:47;3.03;;;2.43;;
6207;SDS011;3137;51.550;7.060;2023-04-25T13:21:13;3.23;;;3.03;;
6207;SDS011;3137;51.550;7.060;2023-04-25T13:23:40;8.27;;;2.70;;
6207;SDS011;3137;51.550;7.060;2023-04-25T13:26:08;2.60;;;2.40;;
6207;SDS011;3137;51.550;7.060;2023-04-25T13:28:35;3.17;;;3.03;;
6207;SDS011;3137;51.550;7.060;2023-04-25T13:31:01;5.17;;;2.87;;
6207;SDS011;3137;51.550;7.060;2023-04-25T13:33:28;4.93;;;3.17;;
6207;SDS011;3137;51.550;7.060;2023-04-25T13:35:54;7.53;;;2.93;;
6207;SDS011;3137;51.550;7.060;2023-04-25T13:38:23;2.07;;;1.97;;
6207;SDS011;3137;51.550;7.060;2023-04-25T13:40:50;3.23;;;2.43;;
6207;SDS011;3137;51.550;7.060;2023-04-25T13:43:21;2.43;;;2.40;;
6207;SDS011;3137;51.550;7.060;2023-04-25T13:45:48;2.43;;;2.27;;
6207;SDS011;3137;51.550;7.060;2023-04-25T13:48:15;12.60;;;2.83;;
6207;SDS011;3137;51.550;7.060;2023-04-25T13:50:42;2.10;;;2.10;;
6207;SDS011;3137;51.550;7.060;2023-04-25T13:53:09;6.13;;;2.40;;
6207;SDS011;3137;51.550;7.060;2023-04-25T13:55:35;2.67;;;2.57;;
6207;SDS011;3137;51.550;7.060;2023-04-25T13:58:03;2.70;;;2.60;;
6207;SDS011;3137;51.550;7.060;2023-04-25T14:00:36;1.90;;;1.90;;
6207;SDS011;3137;51.550;7.060;2023-04-25T14:03:09;4.30;;;2.40;;
6207;SDS011;3137;51.550;7.060;2023-04-25T14:05:36;3.70;;;2.47;;
6207;SDS011;3137;51.550;7.060;2023-04-25T14:08:06;2.90;;;2.80;;
6207;SDS011;3137;51.550;7.060;2023-04-25T14:10:34;2.70;;;2.60;;
6207;SDS011;3137;51.550;7.060;2023-04-25T14:13:01;3.10;;;2.37;;
6207;SDS011;3137;51.550;7.060;2023-04-25T14:15:32;3.07;;;2.33;;
6207;SDS011;3137;51.550;7.060;2023-04-25T14:17:59;2.50;;;2.30;;
6207;SDS011;3137;51.550;7.060;2023-04-25T14:20:26;1.40;;;1.40;;
6207;SDS011;3137;51.550;7.060;2023-04-25T14:22:53;1.80;;;1.70;;
6207;SDS011;3137;51.550;7.060;2023-04-25T14:25:22;1.87;;;1.87;;
6207;SDS011;3137;51.550;7.060;2023-04-25T14:27:49;4.77;;;2.20;;
6207;SDS011;3137;51.550;7.060;2023-04-25T14:30:19;2.50;;;2.33;;
6207;SDS011;3137;51.550;7.060;2023-04-25T14:32:49;2.07;;;2.07;;
6207;SDS011;3137;51.550;7.060;2023-04-25T14:35:16;1.57;;;1.50;;
6207;SDS011;3137;51.550;7.060;2023-04-25T14:37:43;2.40;;;2.30;;
6207;SDS011;3137;51.550;7.060;2023-04-25T14:40:09;2.70;;;2.50;;
6207;SDS011;3137;51.550;7.060;2023-04-25T14:42:37;4.03;;;2.70;;
6207;SDS011;3137;51.550;7.060;2023-04-25T14:45:04;2.50;;;2.50;;
6207;SDS011;3137;51.550;7.060;2023-04-25T14:47:32;2.87;;;2.67;;
6207;SDS011;3137;51.550;7.060;2023-04-25T14:49:59;3.00;;;3.00;;
6207;SDS011;3137;51.550;7.060;2023-04-25T14:52:26;3.40;;;3.00;;
6207;SDS011;3137;51.550;7.060;2023-04-25T14:54:52;3.57;;;2.70;;
6207;SDS011;3137;51.550;7.060;2023-04-25T14:57:19;9.63;;;2.83;;
6207;SDS011;3137;51.550;7.060;2023-04-25T14:59:45;2.47;;;2.37;;
6207;SDS011;3137;51.550;7.060;2023-04-25T15:02:12;3.10;;;2.90;;
6207;SDS011;3137;51.550;7.060;2023-04-25T15:04:39;2.47;;;2.47;;
6207;SDS011;3137;51.550;7.060;2023-04-25T15:07:05;3.60;;;3.47;;
6207;SDS011;3137;51.550;7.060;2023-04-25T15:09:32;2.90;;;2.90;;
6207;SDS011;3137;51.550;7.060;2023-04-25T15:11:58;2.80;;;2.80;;
6207;SDS011;3137;51.550;7.060;2023-04-25T15:14:25;2.73;;;2.40;;
6207;SDS011;3137;51.550;7.060;2023-04-25T15:16:51;3.30;;;2.30;;
6207;SDS011;3137;51.550;7.060;2023-04-25T15:19:18;2.43;;;2.33;;
6207;SDS011;3137;51.550;7.060;2023-04-25T15:21:44;3.80;;;2.40;;
6207;SDS011;3137;51.550;7.060;2023-04-25T15:24:10;3.23;;;3.13;;
6207;SDS011;3137;51.550;7.060;2023-04-25T15:26:37;2.97;;;2.47;;
6207;SDS011;3137;51.550;7.060;2023-04-25T15:29:03;1.97;;;1.97;;
6207;SDS011;3137;51.550;7.060;2023-04-25T15:31:32;2.33;;;1.90;;
6207;SDS011;3137;51.550;7.060;2023-04-25T15:33:58;2.70;;;2.60;;
6207;SDS011;3137;51.550;7.060;2023-04-25T15:36:24;3.90;;;2.63;;